Time,TemperatureF,DewpointF,PressureIn,WindDirection,WindDirectionDegrees,WindSpeedMPH,WindSpeedGustMPH,Humidity,HourlyPrecipIn,Conditions,Clouds,dailyrainin,SoftwareType,DateUTC
2013-03-14 00:00:00,64.0,-99.9,30.36,ESE,111,7.0,9.0,-999,-99.99,,,-99.99,,2013-03-14 05:00:00,
2013-03-14 00:33:00,64.0,-99.9,30.36,ESE,111,7.0,9.0,-999,-99.99,,,-99.99,,2013-03-14 05:33:00,
2013-03-14 00:43:00,64.0,-99.9,30.36,ESE,111,7.0,9.0,-999,-99.99,,,-99.99,,2013-03-14 05:43:00,
2013-03-14 00:53:00,64.0,-99.9,30.36,ESE,111,7.0,9.0,-999,-99.99,,,-99.99,,2013-03-14 05:53:00,
2013-03-14 01:00:00,64.0,-99.9,30.35,ESE,106,6.0,8.0,-999,-99.99,,,-99.99,,2013-03-14 06:00:00,
2013-03-14 01:33:00,64.0,-99.9,30.35,ESE,106,6.0,8.0,-999,-99.99,,,-99.99,,2013-03-14 06:33:00,
2013-03-14 01:42:00,64.0,-99.9,30.35,ESE,106,6.0,8.0,-999,-99.99,,,-99.99,,2013-03-14 06:42:00,
2013-03-14 01:52:00,64.0,-99.9,30.35,ESE,106,6.0,8.0,-999,-99.99,,,-99.99,,2013-03-14 06:52:00,
2013-03-14 02:00:00,63.0,-99.9,30.34,ESE,115,6.0,9.0,-999,-99.99,,,-99.99,,2013-03-14 07:00:00,
2013-03-14 02:32:00,63.0,-99.9,30.34,ESE,115,6.0,9.0,-999,-99.99,,,-99.99,,2013-03-14 07:32:00,
2013-03-14 02:43:00,63.0,-99.9,30.34,ESE,115,6.0,9.0,-999,-99.99,,,-99.99,,2013-03-14 07:43:00,
2013-03-14 02:52:00,63.0,-99.9,30.34,ESE,115,6.0,9.0,-999,-99.99,,,-99.99,,2013-03-14 07:52:00,
2013-03-14 03:00:00,63.0,-99.9,30.32,ESE,102,7.0,9.0,-999,-99.99,,,-99.99,,2013-03-14 08:00:00,
2013-03-14 03:32:00,63.0,-99.9,30.32,ESE,102,7.0,9.0,-999,-99.99,,,-99.99,,2013-03-14 08:32:00,
2013-03-14 03:42:00,63.0,-99.9,30.32,ESE,102,7.0,9.0,-999,-99.99,,,-99.99,,2013-03-14 08:42:00,
2013-03-14 03:52:00,63.0,-99.9,30.32,ESE,102,7.0,9.0,-999,-99.99,,,-99.99,,2013-03-14 08:52:00,
2013-03-14 04:00:00,63.0,-99.9,30.32,ESE,119,7.0,9.0,-999,-99.99,,,-99.99,,2013-03-14 09:00:00,
2013-03-14 04:32:00,63.0,-99.9,30.32,ESE,119,7.0,9.0,-999,-99.99,,,-99.99,,2013-03-14 09:32:00,
2013-03-14 04:42:00,63.0,-99.9,30.32,ESE,119,7.0,9.0,-999,-99.99,,,-99.99,,2013-03-14 09:42:00,
2013-03-14 04:52:00,63.0,-99.9,30.32,ESE,119,7.0,9.0,-999,-99.99,,,-99.99,,2013-03-14 09:52:00,
2013-03-14 05:00:00,63.0,-99.9,30.30,SE,131,6.0,8.0,-999,-99.99,,,-99.99,,2013-03-14 10:00:00,
2013-03-14 05:32:00,63.0,-99.9,30.30,SE,131,6.0,8.0,-999,-99.99,,,-99.99,,2013-03-14 10:32:00,
2013-03-14 05:42:00,63.0,-99.9,30.30,SE,131,6.0,8.0,-999,-99.99,,,-99.99,,2013-03-14 10:42:00,
2013-03-14 05:52:00,63.0,-99.9,30.30,SE,131,6.0,8.0,-999,-99.99,,,-99.99,,2013-03-14 10:52:00,
2013-03-14 06:00:00,62.0,-99.9,30.31,SE,142,4.0,5.0,-999,-99.99,,,-99.99,,2013-03-14 11:00:00,
2013-03-14 06:33:00,62.0,-99.9,30.31,SE,142,4.0,5.0,-999,-99.99,,,-99.99,,2013-03-14 11:33:00,
2013-03-14 06:42:00,62.0,-99.9,30.31,SE,142,4.0,5.0,-999,-99.99,,,-99.99,,2013-03-14 11:42:00,
2013-03-14 06:53:00,62.0,-99.9,30.31,SE,142,4.0,5.0,-999,-99.99,,,-99.99,,2013-03-14 11:53:00,
2013-03-14 07:00:00,63.0,-99.9,30.32,SE,139,4.0,6.0,-999,-99.99,,,-99.99,,2013-03-14 12:00:00,
2013-03-14 07:33:00,63.0,-99.9,30.32,SE,139,4.0,6.0,-999,-99.99,,,-99.99,,2013-03-14 12:33:00,
2013-03-14 07:43:00,63.0,-99.9,30.32,SE,139,4.0,6.0,-999,-99.99,,,-99.99,,2013-03-14 12:43:00,
2013-03-14 07:52:00,63.0,-99.9,30.32,SE,139,4.0,6.0,-999,-99.99,,,-99.99,,2013-03-14 12:52:00,
2013-03-14 08:00:00,63.0,-99.9,30.34,SE,135,3.0,4.0,-999,-99.99,,,-99.99,,2013-03-14 13:00:00,
2013-03-14 08:32:00,63.0,-99.9,30.34,SE,135,3.0,4.0,-999,-99.99,,,-99.99,,2013-03-14 13:32:00,
2013-03-14 08:43:00,63.0,-99.9,30.34,SE,135,3.0,4.0,-999,-99.99,,,-99.99,,2013-03-14 13:43:00,
2013-03-14 08:53:00,63.0,-99.9,30.34,SE,135,3.0,4.0,-999,-99.99,,,-99.99,,2013-03-14 13:53:00,
2013-03-14 09:00:00,66.0,-99.9,30.37,SE,130,4.0,6.0,-999,-99.99,,,-99.99,,2013-03-14 14:00:00,
2013-03-14 09:32:00,66.0,-99.9,30.37,SE,130,4.0,6.0,-999,-99.99,,,-99.99,,2013-03-14 14:32:00,
2013-03-14 09:43:00,66.0,-99.9,30.37,SE,130,4.0,6.0,-999,-99.99,,,-99.99,,2013-03-14 14:43:00,
2013-03-14 09:53:00,66.0,-99.9,30.37,SE,130,4.0,6.0,-999,-99.99,,,-99.99,,2013-03-14 14:53:00,
2013-03-14 10:00:00,67.0,-99.9,30.38,SE,136,6.0,9.0,-999,-99.99,,,-99.99,,2013-03-14 15:00:00,
2013-03-14 10:33:00,67.0,-99.9,30.38,SE,136,6.0,9.0,-999,-99.99,,,-99.99,,2013-03-14 15:33:00,
2013-03-14 10:43:00,67.0,-99.9,30.38,SE,136,6.0,9.0,-999,-99.99,,,-99.99,,2013-03-14 15:43:00,
2013-03-14 10:52:00,67.0,-99.9,30.38,SE,136,6.0,9.0,-999,-99.99,,,-99.99,,2013-03-14 15:52:00,
2013-03-14 11:00:00,69.0,-99.9,30.39,South,172,10.0,12.0,-999,-99.99,,,-99.99,,2013-03-14 16:00:00,
2013-03-14 11:33:00,69.0,-99.9,30.39,South,172,10.0,12.0,-999,-99.99,,,-99.99,,2013-03-14 16:33:00,
2013-03-14 11:42:00,69.0,-99.9,30.39,South,172,10.0,12.0,-999,-99.99,,,-99.99,,2013-03-14 16:42:00,
2013-03-14 11:52:00,69.0,-99.9,30.39,South,172,10.0,12.0,-999,-99.99,,,-99.99,,2013-03-14 16:52:00,
2013-03-14 12:00:00,69.0,-99.9,30.39,SE,127,11.0,18.0,-999,-99.99,,,-99.99,,2013-03-14 17:00:00,
2013-03-14 12:33:00,69.0,-99.9,30.39,SE,127,11.0,18.0,-999,-99.99,,,-99.99,,2013-03-14 17:33:00,
2013-03-14 12:42:00,69.0,-99.9,30.39,SE,127,11.0,18.0,-999,-99.99,,,-99.99,,2013-03-14 17:42:00,
2013-03-14 12:53:00,69.0,-99.9,30.39,SE,127,11.0,18.0,-999,-99.99,,,-99.99,,2013-03-14 17:53:00,
2013-03-14 13:00:00,69.0,-99.9,30.37,SE,134,11.0,15.0,-999,-99.99,,,-99.99,,2013-03-14 18:00:00,
2013-03-14 13:33:00,69.0,-99.9,30.37,SE,134,11.0,15.0,-999,-99.99,,,-99.99,,2013-03-14 18:33:00,
2013-03-14 13:43:00,69.0,-99.9,30.37,SE,134,11.0,15.0,-999,-99.99,,,-99.99,,2013-03-14 18:43:00,
2013-03-14 13:53:00,69.0,-99.9,30.37,SE,134,11.0,15.0,-999,-99.99,,,-99.99,,2013-03-14 18:53:00,
2013-03-14 14:00:00,69.0,-99.9,30.35,ESE,117,13.0,16.0,-999,-99.99,,,-99.99,,2013-03-14 19:00:00,
2013-03-14 14:32:00,69.0,-99.9,30.35,ESE,117,13.0,16.0,-999,-99.99,,,-99.99,,2013-03-14 19:32:00,
2013-03-14 14:43:00,69.0,-99.9,30.35,ESE,117,13.0,16.0,-999,-99.99,,,-99.99,,2013-03-14 19:43:00,
2013-03-14 14:52:00,69.0,-99.9,30.35,ESE,117,13.0,16.0,-999,-99.99,,,-99.99,,2013-03-14 19:52:00,
2013-03-14 15:00:00,69.0,-99.9,30.32,ESE,123,14.0,18.0,-999,-99.99,,,-99.99,,2013-03-14 20:00:00,
2013-03-14 15:32:00,69.0,-99.9,30.32,ESE,123,14.0,18.0,-999,-99.99,,,-99.99,,2013-03-14 20:32:00,
2013-03-14 15:43:00,69.0,-99.9,30.32,ESE,123,14.0,18.0,-999,-99.99,,,-99.99,,2013-03-14 20:43:00,
2013-03-14 15:53:00,69.0,-99.9,30.32,ESE,123,14.0,18.0,-999,-99.99,,,-99.99,,2013-03-14 20:53:00,
2013-03-14 16:00:00,69.0,-99.9,30.30,ESE,116,13.0,17.0,-999,-99.99,,,-99.99,,2013-03-14 21:00:00,
2013-03-14 16:33:00,69.0,-99.9,30.30,ESE,116,13.0,17.0,-999,-99.99,,,-99.99,,2013-03-14 21:33:00,
2013-03-14 16:44:00,69.0,-99.9,30.30,ESE,116,13.0,17.0,-999,-99.99,,,-99.99,,2013-03-14 21:44:00,
2013-03-14 16:53:00,69.0,-99.9,30.30,ESE,116,13.0,17.0,-999,-99.99,,,-99.99,,2013-03-14 21:53:00,
2013-03-14 17:00:00,68.0,-99.9,30.28,ESE,111,13.0,16.0,-999,-99.99,,,-99.99,,2013-03-14 22:00:00,
2013-03-14 17:33:00,68.0,-99.9,30.28,ESE,111,13.0,16.0,-999,-99.99,,,-99.99,,2013-03-14 22:33:00,
2013-03-14 17:42:00,68.0,-99.9,30.28,ESE,111,13.0,16.0,-999,-99.99,,,-99.99,,2013-03-14 22:42:00,
2013-03-14 17:53:00,68.0,-99.9,30.28,ESE,111,13.0,16.0,-999,-99.99,,,-99.99,,2013-03-14 22:53:00,
2013-03-14 18:00:00,68.0,-99.9,30.27,ESE,115,15.0,20.0,-999,-99.99,,,-99.99,,2013-03-14 23:00:00,
2013-03-14 18:33:00,68.0,-99.9,30.27,ESE,115,15.0,20.0,-999,-99.99,,,-99.99,,2013-03-14 23:33:00,
2013-03-14 18:43:00,68.0,-99.9,30.27,ESE,115,15.0,20.0,-999,-99.99,,,-99.99,,2013-03-14 23:43:00,
2013-03-14 18:54:00,68.0,-99.9,30.27,ESE,115,15.0,20.0,-999,-99.99,,,-99.99,,2013-03-14 23:54:00,
2013-03-14 19:00:00,68.0,-99.9,30.26,ESE,115,14.0,18.0,-999,-99.99,,,-99.99,,2013-03-15 00:00:00,
2013-03-14 19:33:00,68.0,-99.9,30.26,ESE,115,14.0,18.0,-999,-99.99,,,-99.99,,2013-03-15 00:33:00,
2013-03-14 19:43:00,68.0,-99.9,30.26,ESE,115,14.0,18.0,-999,-99.99,,,-99.99,,2013-03-15 00:43:00,
2013-03-14 19:52:00,68.0,-99.9,30.26,ESE,115,14.0,18.0,-999,-99.99,,,-99.99,,2013-03-15 00:52:00,
2013-03-14 20:00:00,67.0,-99.9,30.27,ESE,119,11.0,14.0,-999,-99.99,,,-99.99,,2013-03-15 01:00:00,
2013-03-14 20:33:00,67.0,-99.9,30.27,ESE,119,11.0,14.0,-999,-99.99,,,-99.99,,2013-03-15 01:33:00,
2013-03-14 20:43:00,67.0,-99.9,30.27,ESE,119,11.0,14.0,-999,-99.99,,,-99.99,,2013-03-15 01:43:00,
2013-03-14 20:52:00,67.0,-99.9,30.27,ESE,119,11.0,14.0,-999,-99.99,,,-99.99,,2013-03-15 01:52:00,
2013-03-14 21:00:00,67.0,-99.9,30.27,ESE,123,11.0,15.0,-999,-99.99,,,-99.99,,2013-03-15 02:00:00,
2013-03-14 21:32:00,67.0,-99.9,30.27,ESE,123,11.0,15.0,-999,-99.99,,,-99.99,,2013-03-15 02:32:00,
2013-03-14 21:42:00,67.0,-99.9,30.27,ESE,123,11.0,15.0,-999,-99.99,,,-99.99,,2013-03-15 02:42:00,
2013-03-14 21:52:00,67.0,-99.9,30.27,ESE,123,11.0,15.0,-999,-99.99,,,-99.99,,2013-03-15 02:52:00,
2013-03-14 22:00:00,66.0,-99.9,30.28,SE,127,11.0,14.0,-999,-99.99,,,-99.99,,2013-03-15 03:00:00,
2013-03-14 22:33:00,66.0,-99.9,30.28,SE,127,11.0,14.0,-999,-99.99,,,-99.99,,2013-03-15 03:33:00,
2013-03-14 22:43:00,66.0,-99.9,30.28,SE,127,11.0,14.0,-999,-99.99,,,-99.99,,2013-03-15 03:43:00,
2013-03-14 22:53:00,66.0,-99.9,30.28,SE,127,11.0,14.0,-999,-99.99,,,-99.99,,2013-03-15 03:53:00,
2013-03-14 23:00:00,66.0,-99.9,30.28,SE,134,9.0,13.0,-999,-99.99,,,-99.99,,2013-03-15 04:00:00,
2013-03-14 23:33:00,66.0,-99.9,30.28,SE,134,9.0,13.0,-999,-99.99,,,-99.99,,2013-03-15 04:33:00,
2013-03-14 23:43:00,66.0,-99.9,30.28,SE,134,9.0,13.0,-999,-99.99,,,-99.99,,2013-03-15 04:43:00,
2013-03-14 23:53:00,66.0,-99.9,30.28,SE,134,9.0,13.0,-999,-99.99,,,-99.99,,2013-03-15 04:53:00,